Tokuyo Maru No.15 — JD2184 — position and weather

sailwx.info

Track history (hours):
 
Tides and Currents Weather Stations Pressure Air Temp Water Temp Dewpoint Dewpoint Depression Visibility Wind Speed Wind Dir Waves Ship Positions

Tokuyo Maru No.15

Last reported at 2016-Dec-08 08:30 UTC. Time now 2016-Dec-08 14:18 UTC.
Position N 34°10' E 134°59'.

Length 66 m; draft 4.5 m.

Type: Tanker. MMSI: 431402034.

Date/timePositionNaut miles runAvg speedWind from/ knotsBaromVisibWave heightAir tempDewpointWater temp
2016-Dec-08 08:30N 34°10' E 134°59'2310.4
2016-Dec-08 06:18N 34°29' E 135°13'1011.7
2016-Dec-08 05:29N 34°33' E 135°24'1 0.3
2016-Dec-08 00:32N 34°33' E 135°25'5 5.5
2016-Dec-07 23:33N 34°32' E 135°19'2410.5
2016-Dec-07 21:17N 34°14' E 134°60'810.6
2016-Dec-07 20:33N 34°07' E 135°00'  
2016-Dec-04 13:14N 34°06' E 134°60'811.9
2016-Dec-04 12:32N 34°14' E 134°59'1211.1
2016-Dec-04 11:24N 34°25' E 135°06'1112.4
2016-Dec-04 10:33N 34°31' E 135°17'7 1.4
2016-Dec-04 05:32N 34°33' E 135°25'1010.2
2016-Dec-04 04:32N 34°29' E 135°14'2411.2
2016-Dec-04 02:23N 34°07' E 135°00'2 0.0
2016-Dec-02 07:33N 34°06' E 134°60'1512.6
2016-Dec-02 06:22N 34°21' E 135°01'1312.5
2016-Dec-02 05:21N 34°29' E 135°12'11 1.6
2016-Dec-01 22:24N 34°33' E 135°25'5 6.0
2016-Dec-01 21:32N 34°32' E 135°19'0 0.0
2016-Dec-01 20:26N 34°32' E 135°19'0 0.0
2016-Dec-01 19:26N 34°32' E 135°19'0 0.0
2016-Dec-01 18:32N 34°32' E 135°19'0 0.0
2016-Dec-01 17:08N 34°32' E 135°19'5 9.2
2016-Dec-01 16:33N 34°29' E 135°14'2010.2
2016-Dec-01 14:32N 34°12' E 134°60'  
2016-Nov-29 06:21N 35°15' E 139°46'911.3
2016-Nov-29 05:34N 35°23' E 139°42'1211.6
2016-Nov-29 04:34N 35°30' E 139°54'2 0.2
2016-Nov-28 21:12N 35°29' E 139°56'0 0.0
2016-Nov-28 20:12N 35°29' E 139°56'0 0.0
2016-Nov-28 16:30N 35°29' E 139°56'  
Track history (hours):
 
Tides and Currents Weather Stations Pressure Air Temp Water Temp Dewpoint Dewpoint Depression Visibility Wind Speed Wind Dir Waves Ship Positions

Tokuyo Maru No.15

Last reported at 2016-Dec-08 08:30 UTC. Time now 2016-Dec-08 14:18 UTC.
Position N 34°10' E 134°59'.

Length 66 m; draft 4.5 m.

Type: Tanker. MMSI: 431402034.

Date/timePositionNaut miles runAvg speedWind from/ knotsBaromVisibWave heightAir tempDewpointWater temp
2016-Dec-08 08:30N 34°10' E 134°59'2310.4
2016-Dec-08 06:18N 34°29' E 135°13'1011.7
2016-Dec-08 05:29N 34°33' E 135°24'1 0.3
2016-Dec-08 00:32N 34°33' E 135°25'5 5.5
2016-Dec-07 23:33N 34°32' E 135°19'2410.5
2016-Dec-07 21:17N 34°14' E 134°60'810.6
2016-Dec-07 20:33N 34°07' E 135°00'  
2016-Dec-04 13:14N 34°06' E 134°60'811.9
2016-Dec-04 12:32N 34°14' E 134°59'1211.1
2016-Dec-04 11:24N 34°25' E 135°06'1112.4
2016-Dec-04 10:33N 34°31' E 135°17'7 1.4
2016-Dec-04 05:32N 34°33' E 135°25'1010.2
2016-Dec-04 04:32N 34°29' E 135°14'2411.2
2016-Dec-04 02:23N 34°07' E 135°00'2 0.0
2016-Dec-02 07:33N 34°06' E 134°60'1512.6
2016-Dec-02 06:22N 34°21' E 135°01'1312.5
2016-Dec-02 05:21N 34°29' E 135°12'11 1.6
2016-Dec-01 22:24N 34°33' E 135°25'5 6.0
2016-Dec-01 21:32N 34°32' E 135°19'0 0.0
2016-Dec-01 20:26N 34°32' E 135°19'0 0.0
2016-Dec-01 19:26N 34°32' E 135°19'0 0.0
2016-Dec-01 18:32N 34°32' E 135°19'0 0.0
2016-Dec-01 17:08N 34°32' E 135°19'5 9.2
2016-Dec-01 16:33N 34°29' E 135°14'2010.2
2016-Dec-01 14:32N 34°12' E 134°60'  
2016-Nov-29 06:21N 35°15' E 139°46'911.3
2016-Nov-29 05:34N 35°23' E 139°42'1211.6
2016-Nov-29 04:34N 35°30' E 139°54'2 0.2
2016-Nov-28 21:12N 35°29' E 139°56'0 0.0
2016-Nov-28 20:12N 35°29' E 139°56'0 0.0
2016-Nov-28 16:30N 35°29' E 139°56'  

Dump ship's entire track history